KDYS/DYS METAR and TAF weather

Enter ICAO airport designator
Station Type Date Time Source
KDYS METAR 2021/08/05 04:56 UTC NOAA

KDYS 050456Z AUTO 13005KT 10SM CLR 25/15 A3009 RMK AO2 SLPNO T02470145 $


Station Type Date Time Source
KDYS Decoded METAR 2021/08/05 04:56 UTC NOAA

Abilene, Dyess Air Force Base, TX, United States (KDYS) 32-25-12N 099-51-25W
Aug 05, 2021 - 12:56 AM EDT / 2021.08.05 0456 UTC
Wind: from the SE (130 degrees) at 6 MPH (5 KT):0
Visibility: 10 mile(s):0
Sky conditions: clear
Temperature: 76.5 F (24.7 C)
Dew Point: 58.1 F (14.5 C)
Relative Humidity: 53%
Pressure (altimeter): 30.09 in. Hg (1018 hPa)
ob: KDYS 050456Z AUTO 13005KT 10SM CLR 25/15 A3009 RMK AO2 SLPNO T02470145
cycle: 5

Station Type Date Time Source
KDYS TAF 2021/08/05 04:20 UTC NOAA

TAF KDYS 050400Z 0504/0610 10006KT 9999 FEW065 QNH3008INS
BECMG 0510/0511 15009KT 9999 SCT070 QNH3010INS
BECMG 0515/0516 20009KT 9999 BKN070 QNH3008INS
BECMG 0519/0520 VRB06KT 9999 BKN070 QNH3000INS
BECMG 0601/0602 12009KT 9999 SKC QNH3002INS
BECMG 0606/0607 18009KT 9999 SKC QNH3004INS TX32/0523Z TN21/0512Z

Example: see airport list